createdAt,value
2023-02-20T00:00:18.508Z,1016.89
2023-02-20T00:01:18.516Z,1016.93
2023-02-20T00:02:18.450Z,1016.91
2023-02-20T00:03:18.454Z,1016.88
2023-02-20T00:04:18.387Z,1016.85
2023-02-20T00:05:18.362Z,1016.86
2023-02-20T00:06:18.334Z,1016.87
2023-02-20T00:07:18.308Z,1016.81
2023-02-20T00:08:18.283Z,1016.81
2023-02-20T00:09:18.250Z,1016.78
2023-02-20T00:10:18.222Z,1016.87
2023-02-20T00:11:18.199Z,1016.85
2023-02-20T00:12:18.169Z,1016.79
2023-02-20T00:13:18.147Z,1016.84
2023-02-20T00:14:18.112Z,1016.77
2023-02-20T00:15:18.083Z,1016.80
2023-02-20T00:16:18.055Z,1016.81
2023-02-20T00:17:18.030Z,1016.79
2023-02-20T00:18:18.000Z,1016.75
2023-02-20T00:19:17.972Z,1016.74
2023-02-20T00:20:17.952Z,1016.75
2023-02-20T00:21:17.937Z,1016.73
2023-02-20T00:22:17.887Z,1016.81
2023-02-20T00:23:17.879Z,1016.79
2023-02-20T00:24:17.839Z,1016.73
2023-02-20T00:25:17.820Z,1016.75
2023-02-20T00:26:17.779Z,1016.79
2023-02-20T00:27:17.753Z,1016.73
2023-02-20T00:28:17.723Z,1016.73
2023-02-20T00:29:17.698Z,1016.69
2023-02-20T00:30:17.703Z,1016.72
2023-02-20T00:31:17.726Z,1016.72
2023-02-20T00:32:17.678Z,1016.70
2023-02-20T00:33:17.591Z,1016.72
2023-02-20T00:34:17.559Z,1016.67
2023-02-20T00:35:17.538Z,1016.72
2023-02-20T00:36:17.515Z,1016.64
2023-02-20T00:37:17.477Z,1016.66
2023-02-20T00:38:17.451Z,1016.63
2023-02-20T00:39:17.422Z,1016.63
2023-02-20T00:40:17.408Z,1016.63
2023-02-20T00:41:17.372Z,1016.61
2023-02-20T00:42:17.338Z,1016.64
2023-02-20T00:43:17.318Z,1016.59
2023-02-20T00:44:17.284Z,1016.57
2023-02-20T00:45:17.258Z,1016.59
2023-02-20T00:46:17.326Z,1016.55
2023-02-20T00:47:17.200Z,1016.54
2023-02-20T00:48:17.177Z,1016.53
2023-02-20T00:49:17.148Z,1016.54
2023-02-20T00:50:17.147Z,1016.53
2023-02-20T00:51:17.091Z,1016.51
2023-02-20T00:52:17.065Z,1016.49
2023-02-20T00:53:17.037Z,1016.44
2023-02-20T00:54:17.020Z,1016.42
2023-02-20T00:55:16.981Z,1016.41
2023-02-20T00:56:16.949Z,1016.45
2023-02-20T00:57:16.924Z,1016.40
2023-02-20T00:58:16.893Z,1016.39
2023-02-20T00:59:16.880Z,1016.42
2023-02-20T01:00:16.844Z,1016.36
2023-02-20T01:01:16.857Z,1016.32
2023-02-20T01:02:16.782Z,1016.29
2023-02-20T01:03:16.758Z,1016.33
2023-02-20T01:04:16.724Z,1016.32
2023-02-20T01:05:16.699Z,1016.33
2023-02-20T01:06:16.671Z,1016.33
2023-02-20T01:07:16.648Z,1016.32
2023-02-20T01:08:16.619Z,1016.31
2023-02-20T01:09:16.588Z,1016.37
2023-02-20T01:10:16.559Z,1016.35
2023-02-20T01:11:16.535Z,1016.27
2023-02-20T01:12:16.504Z,1016.31
2023-02-20T01:13:16.481Z,1016.20
2023-02-20T01:14:16.450Z,1016.15
2023-02-20T01:15:16.428Z,1016.14
2023-02-20T01:16:16.432Z,1016.11
2023-02-20T01:17:16.369Z,1016.05
2023-02-20T01:18:16.335Z,1016.07
2023-02-20T01:19:16.316Z,1016.00
2023-02-20T01:20:16.280Z,1015.96
2023-02-20T01:21:16.255Z,1015.97
2023-02-20T01:22:16.222Z,1015.93
2023-02-20T01:23:16.196Z,1015.91
2023-02-20T01:24:16.167Z,1015.93
2023-02-20T01:25:16.147Z,1015.84
2023-02-20T01:26:16.114Z,1015.91
2023-02-20T01:27:16.084Z,1015.90
2023-02-20T01:28:16.061Z,1015.86
2023-02-20T01:29:16.032Z,1015.82
2023-02-20T01:30:16.065Z,1015.83
2023-02-20T01:31:16.040Z,1015.90
2023-02-20T01:32:15.996Z,1015.84
2023-02-20T01:33:15.920Z,1015.83
2023-02-20T01:34:15.889Z,1015.91
2023-02-20T01:35:15.884Z,1015.83
2023-02-20T01:36:15.852Z,1015.85
2023-02-20T01:37:15.812Z,1015.85
2023-02-20T01:38:15.780Z,1015.83
2023-02-20T01:39:15.755Z,1015.82
2023-02-20T01:40:15.725Z,1015.76
2023-02-20T01:41:15.700Z,1015.81
2023-02-20T01:42:15.671Z,1015.76
2023-02-20T01:43:15.647Z,1015.78
2023-02-20T01:44:15.621Z,1015.75
2023-02-20T01:45:15.604Z,1015.73
2023-02-20T01:46:15.567Z,1015.72
2023-02-20T01:47:15.533Z,1015.64
2023-02-20T01:48:15.505Z,1015.60
2023-02-20T01:49:15.485Z,1015.60
2023-02-20T01:50:15.447Z,1015.54
2023-02-20T01:51:15.425Z,1015.46
2023-02-20T01:52:15.398Z,1015.48
2023-02-20T01:53:15.373Z,1015.38
2023-02-20T01:54:15.341Z,1015.39
2023-02-20T01:55:15.313Z,1015.36
2023-02-20T01:56:15.284Z,1015.25
2023-02-20T01:57:15.259Z,1015.22
2023-02-20T01:58:15.227Z,1015.20
2023-02-20T01:59:15.204Z,1015.21
2023-02-20T02:00:15.186Z,1015.18
2023-02-20T02:01:15.163Z,1015.18
2023-02-20T02:02:15.200Z,1015.22
2023-02-20T02:03:15.097Z,1015.17
2023-02-20T02:04:15.064Z,1015.13
2023-02-20T02:05:15.038Z,1015.16
2023-02-20T02:06:15.059Z,1015.04
2023-02-20T02:07:15.004Z,1015.05
2023-02-20T02:08:14.949Z,1015.09
2023-02-20T02:09:14.923Z,1014.96
2023-02-20T02:10:14.896Z,1015.00
2023-02-20T02:11:14.869Z,1014.93
2023-02-20T02:12:14.847Z,1014.96
2023-02-20T02:13:14.813Z,1014.99
2023-02-20T02:14:14.781Z,1014.98
2023-02-20T02:15:14.757Z,1014.88
2023-02-20T02:16:15.067Z,1015.00
2023-02-20T02:17:14.710Z,1014.90
2023-02-20T02:18:14.671Z,1014.91
2023-02-20T02:19:14.651Z,1014.87
2023-02-20T02:20:14.616Z,1014.89
2023-02-20T02:21:14.585Z,1014.91
2023-02-20T02:22:14.553Z,1014.91
2023-02-20T02:23:14.528Z,1014.82
2023-02-20T02:24:14.499Z,1014.82
2023-02-20T02:25:14.475Z,1014.84
2023-02-20T02:26:14.819Z,1014.80
2023-02-20T02:27:14.416Z,1014.80
2023-02-20T02:28:14.386Z,1014.80
2023-02-20T02:29:14.358Z,1014.82
2023-02-20T02:30:14.332Z,1014.82
2023-02-20T02:31:14.492Z,1014.77
2023-02-20T02:32:14.283Z,1014.83
2023-02-20T02:33:14.246Z,1014.72
2023-02-20T02:34:14.218Z,1014.72
2023-02-20T02:35:14.201Z,1014.68
2023-02-20T02:36:14.420Z,1014.65
2023-02-20T02:37:14.136Z,1014.67
2023-02-20T02:38:14.253Z,1014.70
2023-02-20T02:39:14.075Z,1014.65
2023-02-20T02:40:14.054Z,1014.61
2023-02-20T02:41:14.020Z,1014.63
2023-02-20T02:42:13.989Z,1014.57
2023-02-20T02:43:13.965Z,1014.52
2023-02-20T02:44:13.937Z,1014.46
2023-02-20T02:45:13.915Z,1014.43
2023-02-20T02:46:14.184Z,1014.44
2023-02-20T02:47:13.855Z,1014.49
2023-02-20T02:48:13.826Z,1014.44
2023-02-20T02:49:13.800Z,1014.35
2023-02-20T02:50:13.771Z,1014.37
2023-02-20T02:51:13.745Z,1014.39
2023-02-20T02:52:13.713Z,1014.39
2023-02-20T02:53:13.687Z,1014.38
2023-02-20T02:54:13.684Z,1014.31
2023-02-20T02:55:13.633Z,1014.31
2023-02-20T02:56:13.957Z,1014.35
2023-02-20T02:57:13.576Z,1014.25
2023-02-20T02:58:13.548Z,1014.27
2023-02-20T02:59:13.520Z,1014.24
2023-02-20T03:00:13.491Z,1014.19
2023-02-20T03:01:13.503Z,1014.17
2023-02-20T03:02:13.495Z,1014.16
2023-02-20T03:03:13.409Z,1014.23
2023-02-20T03:04:13.386Z,1014.22
2023-02-20T03:05:13.352Z,1014.25
2023-02-20T03:06:13.649Z,1014.15
2023-02-20T03:07:13.300Z,1014.15
2023-02-20T03:08:13.268Z,1014.14
2023-02-20T03:09:13.243Z,1014.17
2023-02-20T03:10:13.229Z,1014.15
2023-02-20T03:11:13.188Z,1014.12
2023-02-20T03:12:13.170Z,1014.10
2023-02-20T03:13:13.133Z,1014.07
2023-02-20T03:14:13.100Z,1014.07
2023-02-20T03:15:13.074Z,1014.06
2023-02-20T03:16:13.344Z,1014.08
2023-02-20T03:17:13.016Z,1014.11
2023-02-20T03:18:12.992Z,1014.10
2023-02-20T03:19:12.960Z,1014.00
2023-02-20T03:20:12.935Z,1014.02
2023-02-20T03:21:12.908Z,1014.04
2023-02-20T03:22:12.876Z,1013.97
2023-02-20T03:23:12.852Z,1013.94
2023-02-20T03:24:12.822Z,1014.02
2023-02-20T03:25:12.798Z,1014.08
2023-02-20T03:26:13.150Z,1014.15
2023-02-20T03:27:12.740Z,1014.24
2023-02-20T03:28:12.709Z,1014.21
2023-02-20T03:29:12.683Z,1014.21
2023-02-20T03:30:12.699Z,1014.22
2023-02-20T03:31:12.655Z,1014.21
2023-02-20T03:32:12.675Z,1014.26
2023-02-20T03:33:12.574Z,1014.18
2023-02-20T03:34:12.546Z,1014.17
2023-02-20T03:35:12.516Z,1014.15
2023-02-20T03:36:12.757Z,1014.20
2023-02-20T03:37:12.476Z,1014.23
2023-02-20T03:38:12.432Z,1014.18
2023-02-20T03:39:12.406Z,1014.14
2023-02-20T03:40:12.376Z,1014.20
2023-02-20T03:41:12.350Z,1014.13
2023-02-20T03:42:12.341Z,1014.11
2023-02-20T03:43:12.294Z,1014.18
2023-02-20T03:44:12.266Z,1014.12
2023-02-20T03:45:12.239Z,1014.11
2023-02-20T03:46:12.642Z,1014.18
2023-02-20T03:47:12.180Z,1014.16
2023-02-20T03:48:12.155Z,1014.28
2023-02-20T03:49:12.126Z,1014.21
2023-02-20T03:50:12.104Z,1014.27
2023-02-20T03:51:12.070Z,1014.21
2023-02-20T03:52:12.040Z,1014.14
2023-02-20T03:53:12.012Z,1014.22
2023-02-20T03:54:11.986Z,1014.21
2023-02-20T03:55:11.958Z,1014.16
2023-02-20T03:56:12.179Z,1014.17
2023-02-20T03:57:11.898Z,1014.13
2023-02-20T03:58:11.896Z,1014.15
2023-02-20T03:59:11.846Z,1014.12
2023-02-20T04:00:11.819Z,1014.19
2023-02-20T04:01:11.842Z,1014.12
2023-02-20T04:02:11.782Z,1014.06
2023-02-20T04:03:11.729Z,1014.11
2023-02-20T04:04:11.707Z,1014.07
2023-02-20T04:05:11.678Z,1014.07
2023-02-20T04:06:12.041Z,1014.10
2023-02-20T04:07:11.621Z,1014.05
2023-02-20T04:08:11.594Z,1014.09
2023-02-20T04:09:11.560Z,1014.00
2023-02-20T04:10:11.537Z,1014.02
2023-02-20T04:11:11.507Z,1013.97
2023-02-20T04:12:11.481Z,1014.03
2023-02-20T04:13:11.455Z,1013.99
2023-02-20T04:14:11.444Z,1014.01
2023-02-20T04:15:11.405Z,1013.94
2023-02-20T04:16:11.729Z,1014.02
2023-02-20T04:17:11.336Z,1014.04
2023-02-20T04:18:11.313Z,1014.02
2023-02-20T04:19:11.280Z,1013.95
2023-02-20T04:20:11.254Z,1014.00
2023-02-20T04:21:11.228Z,1014.00
2023-02-20T04:22:11.199Z,1013.87
2023-02-20T04:23:11.172Z,1013.88
2023-02-20T04:24:11.140Z,1013.84
2023-02-20T04:25:11.117Z,1013.86
2023-02-20T04:26:11.447Z,1013.92
2023-02-20T04:27:11.119Z,1013.81
2023-02-20T04:28:11.030Z,1013.81
2023-02-20T04:29:11.013Z,1013.78
2023-02-20T04:30:11.009Z,1013.75
2023-02-20T04:31:11.030Z,1013.80
2023-02-20T04:32:10.914Z,1013.79
2023-02-20T04:33:10.886Z,1013.80
2023-02-20T04:34:10.863Z,1013.75
2023-02-20T04:35:10.827Z,1013.71
2023-02-20T04:36:11.271Z,1013.73
2023-02-20T04:37:10.772Z,1013.60
2023-02-20T04:38:10.755Z,1013.61
2023-02-20T04:39:10.712Z,1013.68
2023-02-20T04:40:10.701Z,1013.71
2023-02-20T04:41:10.657Z,1013.66
2023-02-20T04:42:10.627Z,1013.69
2023-02-20T04:43:10.612Z,1013.78
2023-02-20T04:44:10.582Z,1013.79
2023-02-20T04:45:10.582Z,1013.72
2023-02-20T04:46:10.883Z,1013.75
2023-02-20T04:47:10.490Z,1013.69
2023-02-20T04:48:10.460Z,1013.71
2023-02-20T04:49:10.444Z,1013.72
2023-02-20T04:50:10.406Z,1013.74
2023-02-20T04:51:10.371Z,1013.77
2023-02-20T04:52:10.347Z,1013.76
2023-02-20T04:53:10.316Z,1013.73
2023-02-20T04:54:10.293Z,1013.78
2023-02-20T04:55:10.260Z,1013.83
2023-02-20T04:56:10.294Z,1013.75
2023-02-20T04:57:10.204Z,1013.72
2023-02-20T04:58:10.181Z,1013.78
2023-02-20T04:59:10.148Z,1013.79
2023-02-20T05:00:10.122Z,1013.74
2023-02-20T05:01:10.116Z,1013.78
2023-02-20T05:02:10.448Z,1013.77
2023-02-20T05:03:10.035Z,1013.75
2023-02-20T05:04:10.013Z,1013.70
2023-02-20T05:05:09.979Z,1013.70
2023-02-20T05:06:10.305Z,1013.68
2023-02-20T05:07:09.933Z,1013.73
2023-02-20T05:08:09.898Z,1013.71
2023-02-20T05:09:09.871Z,1013.73
2023-02-20T05:10:09.844Z,1013.62
2023-02-20T05:11:09.819Z,1013.61
2023-02-20T05:12:09.786Z,1013.65
2023-02-20T05:13:09.769Z,1013.68
2023-02-20T05:14:09.729Z,1013.59
2023-02-20T05:15:09.706Z,1013.59
2023-02-20T05:16:09.728Z,1013.51
2023-02-20T05:17:09.645Z,1013.53
2023-02-20T05:18:09.651Z,1013.57
2023-02-20T05:19:09.592Z,1013.64
2023-02-20T05:20:09.560Z,1013.59
2023-02-20T05:21:09.537Z,1013.54
2023-02-20T05:22:09.513Z,1013.54
2023-02-20T05:23:09.480Z,1013.49
2023-02-20T05:24:09.792Z,1013.48
2023-02-20T05:25:09.421Z,1013.52
2023-02-20T05:26:09.407Z,1013.52
2023-02-20T05:27:09.363Z,1013.54
2023-02-20T05:28:09.343Z,1013.47
2023-02-20T05:29:09.305Z,1013.54
2023-02-20T05:30:09.362Z,1013.56
2023-02-20T05:31:09.288Z,1013.57
2023-02-20T05:32:09.321Z,1013.56
2023-02-20T05:33:09.195Z,1013.58
2023-02-20T05:34:09.192Z,1013.48
2023-02-20T05:35:09.145Z,1013.54
2023-02-20T05:36:09.118Z,1013.53
2023-02-20T05:37:09.080Z,1013.55
2023-02-20T05:38:09.055Z,1013.54
2023-02-20T05:39:09.026Z,1013.50
2023-02-20T05:40:09.000Z,1013.47
2023-02-20T05:41:08.971Z,1013.56
2023-02-20T05:42:08.946Z,1013.48
2023-02-20T05:43:08.915Z,1013.45
2023-02-20T05:44:08.889Z,1013.41
2023-02-20T05:45:08.861Z,1013.41
2023-02-20T05:46:08.862Z,1013.36
2023-02-20T05:47:08.800Z,1013.32
2023-02-20T05:48:08.773Z,1013.38
2023-02-20T05:49:08.752Z,1013.33
2023-02-20T05:50:08.739Z,1013.29
2023-02-20T05:51:08.700Z,1013.35
2023-02-20T05:52:08.668Z,1013.45
2023-02-20T05:53:08.640Z,1013.45
2023-02-20T05:54:08.604Z,1013.47
2023-02-20T05:55:08.578Z,1013.42
2023-02-20T05:56:08.548Z,1013.42
2023-02-20T05:57:08.519Z,1013.50
2023-02-20T05:58:08.503Z,1013.48
2023-02-20T05:59:08.461Z,1013.53
2023-02-20T06:00:08.444Z,1013.54
2023-02-20T06:01:08.411Z,1013.58
2023-02-20T06:02:08.379Z,1013.60
2023-02-20T06:03:08.355Z,1013.63
2023-02-20T06:04:08.431Z,1013.48
2023-02-20T06:05:08.294Z,1013.59
2023-02-20T06:06:08.284Z,1013.61
2023-02-20T06:07:08.235Z,1013.42
2023-02-20T06:08:08.210Z,1013.62
2023-02-20T06:09:08.178Z,1013.50
2023-02-20T06:10:08.152Z,1013.60
2023-02-20T06:11:08.123Z,1013.54
2023-02-20T06:12:08.101Z,1013.61
2023-02-20T06:13:08.069Z,1013.63
2023-02-20T06:14:08.048Z,1013.56
2023-02-20T06:15:08.010Z,1013.62
2023-02-20T06:16:08.053Z,1013.57
2023-02-20T06:17:07.953Z,1013.64
2023-02-20T06:18:07.927Z,1013.60
2023-02-20T06:19:07.897Z,1013.57
2023-02-20T06:20:07.870Z,1013.58
2023-02-20T06:21:07.843Z,1013.55
2023-02-20T06:22:07.830Z,1013.40
2023-02-20T06:23:07.782Z,1013.43
2023-02-20T06:24:07.756Z,1013.36
2023-02-20T06:25:07.728Z,1013.32
2023-02-20T06:26:07.707Z,1013.34
2023-02-20T06:27:07.668Z,1013.37
2023-02-20T06:28:07.641Z,1013.38
2023-02-20T06:29:07.615Z,1013.38
2023-02-20T06:30:07.645Z,1013.32
2023-02-20T06:31:07.616Z,1013.32
2023-02-20T06:32:07.745Z,1013.37
2023-02-20T06:33:07.518Z,1013.33
2023-02-20T06:34:07.479Z,1013.39
2023-02-20T06:35:07.448Z,1013.27
2023-02-20T06:36:07.426Z,1013.40
2023-02-20T06:37:07.393Z,1013.37
2023-02-20T06:38:07.384Z,1013.34
2023-02-20T06:39:07.339Z,1013.34
2023-02-20T06:40:07.316Z,1013.39
2023-02-20T06:41:07.280Z,1013.36
2023-02-20T06:42:07.255Z,1013.35
2023-02-20T06:43:07.227Z,1013.39
2023-02-20T06:44:07.199Z,1013.41
2023-02-20T06:45:07.173Z,1013.38
2023-02-20T06:46:07.144Z,1013.36
2023-02-20T06:47:07.111Z,1013.39
2023-02-20T06:48:07.087Z,1013.37
2023-02-20T06:49:07.060Z,1013.42
2023-02-20T06:50:07.029Z,1013.43
2023-02-20T06:51:07.000Z,1013.49
2023-02-20T06:52:06.974Z,1013.28
2023-02-20T06:53:06.951Z,1013.41
2023-02-20T06:54:06.933Z,1013.33
2023-02-20T06:55:06.889Z,1013.38
2023-02-20T06:56:06.863Z,1013.30
2023-02-20T06:57:06.835Z,1013.24
2023-02-20T06:58:06.808Z,1013.31
2023-02-20T06:59:06.779Z,1013.36
2023-02-20T07:00:06.761Z,1013.27
2023-02-20T07:01:06.768Z,1013.27
2023-02-20T07:02:06.719Z,1013.35
2023-02-20T07:03:06.669Z,1013.23
2023-02-20T07:04:06.641Z,1013.33
2023-02-20T07:05:06.611Z,1013.39
2023-02-20T07:06:06.657Z,1013.37
2023-02-20T07:07:06.562Z,1013.29
2023-02-20T07:08:06.544Z,1013.28
2023-02-20T07:09:06.493Z,1013.25
2023-02-20T07:10:06.489Z,1013.39
2023-02-20T07:11:06.440Z,1013.40
2023-02-20T07:12:06.414Z,1013.41
2023-02-20T07:13:06.390Z,1013.48
2023-02-20T07:14:06.377Z,1013.50
2023-02-20T07:15:06.326Z,1013.46
2023-02-20T07:16:06.371Z,1013.41
2023-02-20T07:17:06.271Z,1013.58
2023-02-20T07:18:06.246Z,1013.52
2023-02-20T07:19:06.212Z,1013.46
2023-02-20T07:20:06.201Z,1013.56
2023-02-20T07:21:06.160Z,1013.50
2023-02-20T07:22:06.129Z,1013.51
2023-02-20T07:23:06.099Z,1013.52
2023-02-20T07:24:06.127Z,1013.45
2023-02-20T07:25:06.050Z,1013.45
2023-02-20T07:26:06.054Z,1013.45
2023-02-20T07:27:05.989Z,1013.50
2023-02-20T07:28:05.966Z,1013.44
2023-02-20T07:29:05.931Z,1013.52
2023-02-20T07:30:05.941Z,1013.42
2023-02-20T07:31:05.896Z,1013.38
2023-02-20T07:32:05.967Z,1013.50
2023-02-20T07:33:05.824Z,1013.44
2023-02-20T07:34:05.796Z,1013.55
2023-02-20T07:35:08.896Z,1013.55
2023-02-20T07:36:05.872Z,1013.50
2023-02-20T07:37:05.709Z,1013.45
2023-02-20T07:38:05.681Z,1013.54
2023-02-20T07:39:05.652Z,1013.53
2023-02-20T07:40:05.625Z,1013.56
2023-02-20T07:41:05.593Z,1013.58
2023-02-20T07:42:05.588Z,1013.60
2023-02-20T07:43:05.537Z,1013.44
2023-02-20T07:44:05.522Z,1013.47
2023-02-20T07:45:05.493Z,1013.42
2023-02-20T07:46:05.533Z,1013.43
2023-02-20T07:47:05.425Z,1013.41
2023-02-20T07:48:05.399Z,1013.47
2023-02-20T07:49:05.372Z,1013.40
2023-02-20T07:50:05.350Z,1013.40
2023-02-20T07:51:05.314Z,1013.32
2023-02-20T07:52:05.287Z,1013.32
2023-02-20T07:53:05.261Z,1013.33
2023-02-20T07:54:05.232Z,1013.38
2023-02-20T07:55:05.202Z,1013.28
2023-02-20T07:56:05.177Z,1013.36
2023-02-20T07:57:05.149Z,1013.27
2023-02-20T07:58:05.136Z,1013.29
2023-02-20T07:59:05.089Z,1013.22
2023-02-20T08:00:05.084Z,1013.31
2023-02-20T08:01:05.042Z,1013.23
2023-02-20T08:02:05.017Z,1013.30
2023-02-20T08:03:04.980Z,1013.25
2023-02-20T08:04:04.994Z,1013.34
2023-02-20T08:05:04.939Z,1013.26
2023-02-20T08:06:04.889Z,1013.34
2023-02-20T08:07:04.865Z,1013.30
2023-02-20T08:08:04.837Z,1013.25
2023-02-20T08:09:04.883Z,1013.23
2023-02-20T08:10:05.158Z,1013.33
2023-02-20T08:11:09.524Z,1013.28
2023-02-20T08:12:04.727Z,1013.30
2023-02-20T08:13:04.696Z,1013.27
2023-02-20T08:14:04.688Z,1013.35
2023-02-20T08:15:04.647Z,1013.25
2023-02-20T08:16:04.804Z,1013.28
2023-02-20T08:17:04.584Z,1013.29
2023-02-20T08:18:12.525Z,1013.30
2023-02-20T08:19:04.549Z,1013.18
2023-02-20T08:20:04.500Z,1013.21
2023-02-20T08:21:04.472Z,1013.25
2023-02-20T08:22:04.442Z,1013.24
2023-02-20T08:23:04.414Z,1013.26
2023-02-20T08:24:04.386Z,1013.26
2023-02-20T08:25:04.362Z,1013.22
2023-02-20T08:26:04.333Z,1013.28
2023-02-20T08:27:04.311Z,1013.31
2023-02-20T08:28:04.277Z,1013.30
2023-02-20T08:29:04.256Z,1013.28
2023-02-20T08:30:04.290Z,1013.26
2023-02-20T08:31:04.195Z,1013.24
2023-02-20T08:32:04.303Z,1013.23
2023-02-20T08:33:04.137Z,1013.24
2023-02-20T08:34:04.110Z,1013.26
2023-02-20T08:35:04.084Z,1013.32
2023-02-20T08:36:04.105Z,1013.39
2023-02-20T08:37:04.087Z,1013.25
2023-02-20T08:38:03.997Z,1013.32
2023-02-20T08:39:03.974Z,1013.35
2023-02-20T08:40:03.941Z,1013.30
2023-02-20T08:41:04.014Z,1013.26
2023-02-20T08:42:03.887Z,1013.32
2023-02-20T08:43:03.860Z,1013.20
2023-02-20T08:44:03.832Z,1013.24
2023-02-20T08:45:03.807Z,1013.19
2023-02-20T08:46:03.865Z,1013.28
2023-02-20T08:47:03.754Z,1013.17
2023-02-20T08:48:03.724Z,1013.19
2023-02-20T08:49:03.697Z,1013.27
2023-02-20T08:50:03.734Z,1013.21
2023-02-20T08:51:03.638Z,1013.26
2023-02-20T08:52:03.610Z,1013.21
2023-02-20T08:53:03.593Z,1013.10
2023-02-20T08:54:03.554Z,1013.09
2023-02-20T08:55:03.534Z,1013.15
2023-02-20T08:56:03.496Z,1013.17
2023-02-20T08:57:03.478Z,1013.10
2023-02-20T08:58:03.441Z,1013.13
2023-02-20T08:59:03.416Z,1013.08
2023-02-20T09:00:03.392Z,1013.05
2023-02-20T09:01:03.379Z,1013.13
2023-02-20T09:02:03.358Z,1013.02
2023-02-20T09:03:03.393Z,1013.04
2023-02-20T09:04:03.300Z,1013.04
2023-02-20T09:05:03.286Z,1013.03
2023-02-20T09:06:03.231Z,1012.99
2023-02-20T09:07:03.206Z,1013.05
2023-02-20T09:08:03.198Z,1013.02
2023-02-20T09:09:03.151Z,1013.05
2023-02-20T09:10:03.120Z,1012.96
2023-02-20T09:11:03.090Z,1013.01
2023-02-20T09:12:03.124Z,1013.05
2023-02-20T09:13:03.066Z,1013.09
2023-02-20T09:14:03.004Z,1013.04
2023-02-20T09:15:02.983Z,1013.10
2023-02-20T09:16:02.951Z,1012.96
2023-02-20T09:17:02.996Z,1013.11
2023-02-20T09:18:02.928Z,1012.99
2023-02-20T09:19:02.873Z,1012.99
2023-02-20T09:20:02.850Z,1013.02
2023-02-20T09:21:02.823Z,1012.98
2023-02-20T09:22:02.895Z,1013.00
2023-02-20T09:23:02.769Z,1012.96
2023-02-20T09:24:02.741Z,1012.98
2023-02-20T09:25:02.710Z,1012.89
2023-02-20T09:26:02.679Z,1012.91
2023-02-20T09:27:02.713Z,1012.93
2023-02-20T09:28:02.640Z,1012.93
2023-02-20T09:29:02.613Z,1013.03
2023-02-20T09:30:02.660Z,1013.02
2023-02-20T09:31:02.542Z,1012.98
2023-02-20T09:32:02.643Z,1012.90
2023-02-20T09:33:02.516Z,1012.87
2023-02-20T09:34:02.478Z,1012.93
2023-02-20T09:35:02.450Z,1012.88
2023-02-20T09:36:02.404Z,1012.99
2023-02-20T09:37:02.391Z,1012.85
2023-02-20T09:38:02.350Z,1012.88
2023-02-20T09:39:02.326Z,1012.84
2023-02-20T09:40:02.298Z,1012.89
2023-02-20T09:41:02.269Z,1012.83
2023-02-20T09:42:02.272Z,1012.88
2023-02-20T09:43:02.223Z,1012.78
2023-02-20T09:44:02.189Z,1012.81
2023-02-20T09:45:02.181Z,1012.81
2023-02-20T09:46:02.296Z,1012.72
2023-02-20T09:47:02.101Z,1012.74
2023-02-20T09:48:02.072Z,1012.65
2023-02-20T09:49:02.054Z,1012.79
2023-02-20T09:50:02.037Z,1012.63
2023-02-20T09:51:02.005Z,1012.64
2023-02-20T09:52:01.963Z,1012.51
2023-02-20T09:53:01.935Z,1012.54
2023-02-20T09:54:01.910Z,1012.49
2023-02-20T09:55:01.882Z,1012.58
2023-02-20T09:56:01.862Z,1012.56
2023-02-20T09:57:01.833Z,1012.47
2023-02-20T09:58:01.798Z,1012.59
2023-02-20T09:59:01.793Z,1012.62
2023-02-20T10:00:05.180Z,1012.66
2023-02-20T10:01:01.736Z,1012.68
2023-02-20T10:02:01.873Z,1012.73
2023-02-20T10:03:01.795Z,1012.75
2023-02-20T10:04:01.634Z,1012.79
2023-02-20T10:05:02.146Z,1012.81
2023-02-20T10:06:01.596Z,1012.82
2023-02-20T10:07:01.575Z,1012.89
2023-02-20T10:08:01.531Z,1012.81
2023-02-20T10:09:01.511Z,1012.94
2023-02-20T10:10:01.507Z,1012.88
2023-02-20T10:11:01.451Z,1012.89
2023-02-20T10:12:01.426Z,1012.86
2023-02-20T10:13:01.412Z,1012.94
2023-02-20T10:14:01.364Z,1012.87
2023-02-20T10:15:01.386Z,1013.02
2023-02-20T10:16:01.339Z,1013.06
2023-02-20T10:17:01.285Z,1013.00
2023-02-20T10:18:01.259Z,1013.08
2023-02-20T10:19:01.231Z,1013.07
2023-02-20T10:20:01.202Z,1013.16
2023-02-20T10:21:01.175Z,1013.17
2023-02-20T10:22:01.165Z,1013.10
2023-02-20T10:23:01.126Z,1013.16
2023-02-20T10:24:05.830Z,1013.14
2023-02-20T10:25:01.078Z,1013.23
2023-02-20T10:26:01.044Z,1013.11
2023-02-20T10:27:01.018Z,1013.23
2023-02-20T10:28:00.999Z,1013.26
2023-02-20T10:29:01.039Z,1013.22
2023-02-20T10:30:00.930Z,1013.35
2023-02-20T10:31:00.979Z,1013.24
2023-02-20T10:32:00.996Z,1013.30
2023-02-20T10:33:00.851Z,1013.26
2023-02-20T10:34:00.850Z,1013.29
2023-02-20T10:35:00.803Z,1013.35
2023-02-20T10:36:00.769Z,1013.34
2023-02-20T10:37:00.811Z,1013.38
2023-02-20T10:38:00.733Z,1013.41
2023-02-20T10:39:00.745Z,1013.29
2023-02-20T10:40:00.666Z,1013.28
2023-02-20T10:41:00.634Z,1013.28
2023-02-20T10:42:00.632Z,1013.29
2023-02-20T10:43:00.598Z,1013.36
2023-02-20T10:44:00.595Z,1013.36
2023-02-20T10:45:00.601Z,1013.36
2023-02-20T10:46:00.537Z,1013.35
2023-02-20T10:47:00.540Z,1013.39
2023-02-20T10:48:00.444Z,1013.41
2023-02-20T10:49:00.419Z,1013.54
2023-02-20T10:50:00.386Z,1013.48
2023-02-20T10:51:00.384Z,1013.53
2023-02-20T10:52:00.344Z,1013.60
2023-02-20T10:53:00.328Z,1013.58
2023-02-20T10:54:00.298Z,1013.63
2023-02-20T10:55:00.259Z,1013.52
2023-02-20T10:56:00.243Z,1013.58
2023-02-20T10:57:00.195Z,1013.57
2023-02-20T10:58:00.178Z,1013.53
2023-02-20T10:59:00.180Z,1013.42
2023-02-20T11:00:00.161Z,1013.47
2023-02-20T11:01:00.228Z,1013.48
2023-02-20T11:02:00.224Z,1013.44
2023-02-20T11:03:00.035Z,1013.48
2023-02-20T11:04:00.106Z,1013.45
2023-02-20T11:04:59.979Z,1013.50
2023-02-20T11:05:59.954Z,1013.43
2023-02-20T11:07:02.329Z,1013.46
2023-02-20T11:07:59.894Z,1013.39
2023-02-20T11:08:59.869Z,1013.44
2023-02-20T11:09:59.860Z,1013.45
2023-02-20T11:10:59.813Z,1013.41
2023-02-20T11:11:59.783Z,1013.44
2023-02-20T11:12:59.757Z,1013.49
2023-02-20T11:13:59.732Z,1013.47
2023-02-20T11:14:59.714Z,1013.37
2023-02-20T11:15:59.752Z,1013.46
2023-02-20T11:16:59.656Z,1013.52
2023-02-20T11:17:59.619Z,1013.47
2023-02-20T11:18:59.605Z,1013.42
2023-02-20T11:19:59.565Z,1013.43
2023-02-20T11:20:59.541Z,1013.37
2023-02-20T11:21:59.527Z,1013.38
2023-02-20T11:22:59.488Z,1013.27
2023-02-20T11:23:59.456Z,1013.25
2023-02-20T11:24:59.430Z,1013.15
2023-02-20T11:25:59.437Z,1013.19
2023-02-20T11:26:59.431Z,1013.10
2023-02-20T11:27:59.350Z,1013.10
2023-02-20T11:28:59.323Z,1013.01
2023-02-20T11:29:59.296Z,1012.91
2023-02-20T11:30:59.298Z,1012.86
2023-02-20T11:31:59.293Z,1012.82
2023-02-20T11:32:59.218Z,1012.82
2023-02-20T11:33:59.191Z,1012.75
2023-02-20T11:34:59.165Z,1012.73
2023-02-20T11:35:59.149Z,1012.54
2023-02-20T11:36:59.115Z,1012.32
2023-02-20T11:37:59.085Z,1012.35
2023-02-20T11:38:59.060Z,1012.36
2023-02-20T11:39:59.031Z,1012.38
2023-02-20T11:40:59.005Z,1012.49
2023-02-20T11:41:59.002Z,1012.67
2023-02-20T11:42:58.951Z,1012.65
2023-02-20T11:44:01.600Z,1012.63
2023-02-20T11:44:58.904Z,1012.49
2023-02-20T11:45:58.885Z,1012.48
2023-02-20T11:46:58.844Z,1012.48
2023-02-20T11:47:58.817Z,1012.41
2023-02-20T11:48:58.790Z,1012.34
2023-02-20T11:50:02.890Z,1012.26
2023-02-20T11:50:58.738Z,1012.36
2023-02-20T11:51:58.711Z,1012.36
2023-02-20T11:52:58.685Z,1012.44
2023-02-20T11:53:58.652Z,1012.44
2023-02-20T11:54:58.626Z,1012.48
2023-02-20T11:56:00.364Z,1012.49
2023-02-20T11:56:58.576Z,1012.59
2023-02-20T11:57:58.578Z,1012.52
2023-02-20T11:58:58.516Z,1012.48
2023-02-20T11:59:58.489Z,1012.48
2023-02-20T12:00:58.462Z,1012.40
2023-02-20T12:02:01.106Z,1012.48
2023-02-20T12:02:58.479Z,1012.51
2023-02-20T12:03:58.483Z,1012.66
2023-02-20T12:04:58.384Z,1012.59